Chantal — A8WQ3 — position and weather

sailwx.info

Track history (hours):
 
Tides and Currents Weather Stations Pressure Air Temp Water Temp Dewpoint Dewpoint Depression Visibility Wind Speed Wind Dir Waves Ship Positions

Chantal

Last reported at 2014-Sep-14 23:25 UTC. Time now 2014-Sep-15 04:04 UTC.
Position N 54°24' E 005°06'.

Length 228 m; draft 8 m.

Type: Tanker. MMSI: 636014805.

Date/timePositionNaut miles runAvg speedWind from/ knotsBaromVisibWave heightAir tempDewpointWater temp
2014-Sep-14 23:25N 54°24' E 005°06'1315.3
2014-Sep-14 22:33N 54°12' E 004°55'1515.3
2014-Sep-14 21:33N 53°59' E 004°42'15814.0
2014-Sep-14 10:17N 51°42' E 002°32'1013.6
2014-Sep-14 09:33N 51°34' E 002°21'1514.3
2014-Sep-14 08:31N 51°24' E 002°04'1414.6
2014-Sep-14 07:34N 51°13' E 001°49'1614.7
2014-Sep-14 06:28N 51°01' E 001°34'4114.2
2014-Sep-14 03:34N 50°29' E 000°52'1514.8
2014-Sep-14 02:34N 50°24' E 000°30'  
2014-Sep-10 16:25N 38°29' W 009°33'1111.1
2014-Sep-10 15:28N 38°24' W 009°22'1210.6
2014-Sep-10 14:19N 38°22' W 009°06'3 4.5
2014-Sep-10 13:34N 38°23' W 009°02'2 2.0
2014-Sep-10 12:32N 38°23' W 009°05'4 4.2
2014-Sep-10 11:31N 38°26' W 009°00'7 7.3
2014-Sep-10 10:33N 38°30' W 008°53'2 0.3
2014-Sep-10 04:30N 38°28' W 008°52'3 2.8
2014-Sep-10 03:33N 38°28' W 008°48'1 0.8
2014-Sep-10 02:22N 38°28' W 008°47'0 0.0
2014-Sep-10 01:16N 38°28' W 008°47'0 0.0
2014-Sep-10 00:22N 38°28' W 008°47'  
Track history (hours):
 
Tides and Currents Weather Stations Pressure Air Temp Water Temp Dewpoint Dewpoint Depression Visibility Wind Speed Wind Dir Waves Ship Positions

Chantal

Last reported at 2014-Sep-14 23:25 UTC. Time now 2014-Sep-15 04:04 UTC.
Position N 54°24' E 005°06'.

Length 228 m; draft 8 m.

Type: Tanker. MMSI: 636014805.

Date/timePositionNaut miles runAvg speedWind from/ knotsBaromVisibWave heightAir tempDewpointWater temp
2014-Sep-14 23:25N 54°24' E 005°06'1315.3
2014-Sep-14 22:33N 54°12' E 004°55'1515.3
2014-Sep-14 21:33N 53°59' E 004°42'15814.0
2014-Sep-14 10:17N 51°42' E 002°32'1013.6
2014-Sep-14 09:33N 51°34' E 002°21'1514.3
2014-Sep-14 08:31N 51°24' E 002°04'1414.6
2014-Sep-14 07:34N 51°13' E 001°49'1614.7
2014-Sep-14 06:28N 51°01' E 001°34'4114.2
2014-Sep-14 03:34N 50°29' E 000°52'1514.8
2014-Sep-14 02:34N 50°24' E 000°30'  
2014-Sep-10 16:25N 38°29' W 009°33'1111.1
2014-Sep-10 15:28N 38°24' W 009°22'1210.6
2014-Sep-10 14:19N 38°22' W 009°06'3 4.5
2014-Sep-10 13:34N 38°23' W 009°02'2 2.0
2014-Sep-10 12:32N 38°23' W 009°05'4 4.2
2014-Sep-10 11:31N 38°26' W 009°00'7 7.3
2014-Sep-10 10:33N 38°30' W 008°53'2 0.3
2014-Sep-10 04:30N 38°28' W 008°52'3 2.8
2014-Sep-10 03:33N 38°28' W 008°48'1 0.8
2014-Sep-10 02:22N 38°28' W 008°47'0 0.0
2014-Sep-10 01:16N 38°28' W 008°47'0 0.0
2014-Sep-10 00:22N 38°28' W 008°47'  

Dump ship's entire track history